sensor_id;sensor_type;location;lat;lon;timestamp;temperature;humidity
480;DHT22;226;48.606;9.096;2023-06-01T00:01:33;12.50;44.70
480;DHT22;226;48.606;9.096;2023-06-01T00:04:04;12.40;45.60
480;DHT22;226;48.606;9.096;2023-06-01T00:06:34;12.40;45.50
480;DHT22;226;48.606;9.096;2023-06-01T00:09:02;12.70;47.90
480;DHT22;226;48.606;9.096;2023-06-01T00:11:30;12.30;48.40
480;DHT22;226;48.606;9.096;2023-06-01T00:13:59;12.20;50.70
480;DHT22;226;48.606;9.096;2023-06-01T00:16:27;12.40;53.00
480;DHT22;226;48.606;9.096;2023-06-01T00:18:57;11.90;53.50
480;DHT22;226;48.606;9.096;2023-06-01T00:21:27;12.20;55.50
480;DHT22;226;48.606;9.096;2023-06-01T00:23:55;11.90;57.30
480;DHT22;226;48.606;9.096;2023-06-01T00:26:24;11.90;56.90
480;DHT22;226;48.606;9.096;2023-06-01T00:28:53;11.80;53.90
480;DHT22;226;48.606;9.096;2023-06-01T00:31:21;11.60;58.60
480;DHT22;226;48.606;9.096;2023-06-01T00:33:49;11.80;54.40
480;DHT22;226;48.606;9.096;2023-06-01T00:36:18;12.20;53.70
480;DHT22;226;48.606;9.096;2023-06-01T00:38:47;12.60;55.00
480;DHT22;226;48.606;9.096;2023-06-01T00:41:15;12.30;58.10
480;DHT22;226;48.606;9.096;2023-06-01T00:43:43;12.10;56.80
480;DHT22;226;48.606;9.096;2023-06-01T00:46:11;11.80;60.80
480;DHT22;226;48.606;9.096;2023-06-01T00:48:41;11.80;56.20
480;DHT22;226;48.606;9.096;2023-06-01T00:51:09;12.30;57.90
480;DHT22;226;48.606;9.096;2023-06-01T00:53:40;11.60;61.10
480;DHT22;226;48.606;9.096;2023-06-01T00:56:10;11.70;57.50
480;DHT22;226;48.606;9.096;2023-06-01T00:58:39;12.00;57.80
480;DHT22;226;48.606;9.096;2023-06-01T01:01:08;11.80;59.80
480;DHT22;226;48.606;9.096;2023-06-01T01:03:46;12.00;61.20
480;DHT22;226;48.606;9.096;2023-06-01T01:06:23;11.80;58.80
480;DHT22;226;48.606;9.096;2023-06-01T01:09:06;12.20;60.40
480;DHT22;226;48.606;9.096;2023-06-01T01:11:41;11.80;56.50
480;DHT22;226;48.606;9.096;2023-06-01T01:14:16;12.00;58.00
480;DHT22;226;48.606;9.096;2023-06-01T01:16:53;11.60;59.50
480;DHT22;226;48.606;9.096;2023-06-01T01:19:41;11.70;60.80
480;DHT22;226;48.606;9.096;2023-06-01T01:22:22;11.30;60.80
480;DHT22;226;48.606;9.096;2023-06-01T01:25:07;11.40;61.00
480;DHT22;226;48.606;9.096;2023-06-01T01:27:42;11.40;59.30
480;DHT22;226;48.606;9.096;2023-06-01T01:30:16;11.30;58.20
480;DHT22;226;48.606;9.096;2023-06-01T01:32:45;11.10;77.90
480;DHT22;226;48.606;9.096;2023-06-01T01:35:14;11.60;61.00
480;DHT22;226;48.606;9.096;2023-06-01T01:37:50;11.20;61.00
480;DHT22;226;48.606;9.096;2023-06-01T01:40:19;11.30;61.40
480;DHT22;226;48.606;9.096;2023-06-01T01:42:48;11.10;79.20
480;DHT22;226;48.606;9.096;2023-06-01T01:45:18;11.70;62.20
480;DHT22;226;48.606;9.096;2023-06-01T01:47:54;11.20;63.60
480;DHT22;226;48.606;9.096;2023-06-01T01:50:28;12.00;64.70
480;DHT22;226;48.606;9.096;2023-06-01T01:52:58;11.30;64.20
480;DHT22;226;48.606;9.096;2023-06-01T01:55:27;11.60;64.20
480;DHT22;226;48.606;9.096;2023-06-01T01:57:57;10.90;46.60
480;DHT22;226;48.606;9.096;2023-06-01T02:00:28;11.00;47.90
480;DHT22;226;48.606;9.096;2023-06-01T02:02:57;10.60;55.30
480;DHT22;226;48.606;9.096;2023-06-01T02:05:25;10.70;55.40
480;DHT22;226;48.606;9.096;2023-06-01T02:07:53;10.90;55.90
480;DHT22;226;48.606;9.096;2023-06-01T02:10:22;11.50;56.40
480;DHT22;226;48.606;9.096;2023-06-01T02:12:50;10.80;77.10
480;DHT22;226;48.606;9.096;2023-06-01T02:15:18;11.30;55.10
480;DHT22;226;48.606;9.096;2023-06-01T02:17:47;10.80;55.70
480;DHT22;226;48.606;9.096;2023-06-01T02:20:16;10.80;56.10
480;DHT22;226;48.606;9.096;2023-06-01T02:22:44;10.70;76.20
480;DHT22;226;48.606;9.096;2023-06-01T02:25:12;11.20;56.90
480;DHT22;226;48.606;9.096;2023-06-01T02:27:40;10.80;56.60
480;DHT22;226;48.606;9.096;2023-06-01T02:30:09;10.70;56.80
480;DHT22;226;48.606;9.096;2023-06-01T02:32:37;10.50;76.50
480;DHT22;226;48.606;9.096;2023-06-01T02:35:07;10.60;57.90
480;DHT22;226;48.606;9.096;2023-06-01T02:37:36;10.50;57.60
480;DHT22;226;48.606;9.096;2023-06-01T02:40:05;11.10;58.60
480;DHT22;226;48.606;9.096;2023-06-01T02:42:33;10.60;56.50
480;DHT22;226;48.606;9.096;2023-06-01T02:45:01;10.50;57.40
480;DHT22;226;48.606;9.096;2023-06-01T02:47:30;10.80;58.20
480;DHT22;226;48.606;9.096;2023-06-01T02:49:58;10.90;59.30
480;DHT22;226;48.606;9.096;2023-06-01T02:52:28;10.80;57.70
480;DHT22;226;48.606;9.096;2023-06-01T02:54:56;10.70;56.40
480;DHT22;226;48.606;9.096;2023-06-01T02:57:24;11.00;56.40
480;DHT22;226;48.606;9.096;2023-06-01T02:59:52;11.40;55.90
480;DHT22;226;48.606;9.096;2023-06-01T03:02:20;10.70;54.30
480;DHT22;226;48.606;9.096;2023-06-01T03:04:48;10.60;54.90
480;DHT22;226;48.606;9.096;2023-06-01T03:07:17;11.00;56.60
480;DHT22;226;48.606;9.096;2023-06-01T03:09:46;10.50;58.10
480;DHT22;226;48.606;9.096;2023-06-01T03:12:14;10.40;60.70
480;DHT22;226;48.606;9.096;2023-06-01T03:14:42;10.30;61.50
480;DHT22;226;48.606;9.096;2023-06-01T03:17:10;11.30;62.40
480;DHT22;226;48.606;9.096;2023-06-01T03:19:38;10.60;60.70
480;DHT22;226;48.606;9.096;2023-06-01T03:22:07;10.30;60.40
480;DHT22;226;48.606;9.096;2023-06-01T03:24:35;10.20;60.70
480;DHT22;226;48.606;9.096;2023-06-01T03:27:05;10.30;60.70
480;DHT22;226;48.606;9.096;2023-06-01T03:29:33;10.40;60.50
480;DHT22;226;48.606;9.096;2023-06-01T03:32:02;10.50;60.30
480;DHT22;226;48.606;9.096;2023-06-01T03:34:30;10.30;59.10
480;DHT22;226;48.606;9.096;2023-06-01T03:36:59;10.60;58.30
480;DHT22;226;48.606;9.096;2023-06-01T03:39:27;10.70;58.60
480;DHT22;226;48.606;9.096;2023-06-01T03:41:55;10.60;58.60
480;DHT22;226;48.606;9.096;2023-06-01T03:44:25;10.60;57.40
480;DHT22;226;48.606;9.096;2023-06-01T03:46:53;10.70;59.00
480;DHT22;226;48.606;9.096;2023-06-01T03:49:21;10.70;59.00
480;DHT22;226;48.606;9.096;2023-06-01T03:51:49;11.10;59.00
480;DHT22;226;48.606;9.096;2023-06-01T03:54:19;10.60;57.50
480;DHT22;226;48.606;9.096;2023-06-01T03:56:47;10.70;58.20
480;DHT22;226;48.606;9.096;2023-06-01T03:59:15;10.90;59.10
480;DHT22;226;48.606;9.096;2023-06-01T04:01:46;10.50;59.80
480;DHT22;226;48.606;9.096;2023-06-01T04:04:15;10.50;59.90
480;DHT22;226;48.606;9.096;2023-06-01T04:06:43;10.60;60.60
480;DHT22;226;48.606;9.096;2023-06-01T04:09:12;11.00;60.30
480;DHT22;226;48.606;9.096;2023-06-01T04:11:41;11.10;60.90
480;DHT22;226;48.606;9.096;2023-06-01T04:14:10;11.20;60.90
480;DHT22;226;48.606;9.096;2023-06-01T04:16:38;11.20;60.90
480;DHT22;226;48.606;9.096;2023-06-01T04:19:07;10.80;61.20
480;DHT22;226;48.606;9.096;2023-06-01T04:21:35;10.90;59.80
480;DHT22;226;48.606;9.096;2023-06-01T04:24:04;11.30;58.10
480;DHT22;226;48.606;9.096;2023-06-01T04:26:32;11.10;58.30
480;DHT22;226;48.606;9.096;2023-06-01T04:29:03;11.20;58.40
480;DHT22;226;48.606;9.096;2023-06-01T04:31:31;11.60;58.20
480;DHT22;226;48.606;9.096;2023-06-01T04:34:01;11.20;57.00
480;DHT22;226;48.606;9.096;2023-06-01T04:36:32;11.40;57.70
480;DHT22;226;48.606;9.096;2023-06-01T04:39:03;11.40;57.20
480;DHT22;226;48.606;9.096;2023-06-01T04:41:34;11.70;57.00
480;DHT22;226;48.606;9.096;2023-06-01T04:44:02;11.60;54.70
480;DHT22;226;48.606;9.096;2023-06-01T04:46:34;11.60;55.00
480;DHT22;226;48.606;9.096;2023-06-01T04:49:06;11.60;55.40
480;DHT22;226;48.606;9.096;2023-06-01T04:51:36;11.80;56.60
480;DHT22;226;48.606;9.096;2023-06-01T04:54:04;11.90;55.40
480;DHT22;226;48.606;9.096;2023-06-01T04:56:34;11.90;55.30
480;DHT22;226;48.606;9.096;2023-06-01T04:59:02;12.00;54.40
480;DHT22;226;48.606;9.096;2023-06-01T05:01:32;12.40;55.30
480;DHT22;226;48.606;9.096;2023-06-01T05:04:00;12.60;54.30
480;DHT22;226;48.606;9.096;2023-06-01T05:06:28;12.20;53.60
480;DHT22;226;48.606;9.096;2023-06-01T05:08:57;12.90;53.60
480;DHT22;226;48.606;9.096;2023-06-01T05:11:25;12.40;54.30
480;DHT22;226;48.606;9.096;2023-06-01T05:13:54;12.90;53.50
480;DHT22;226;48.606;9.096;2023-06-01T05:16:28;12.90;53.90
480;DHT22;226;48.606;9.096;2023-06-01T05:18:56;12.70;52.50
480;DHT22;226;48.606;9.096;2023-06-01T05:21:24;12.80;51.20
480;DHT22;226;48.606;9.096;2023-06-01T05:23:52;12.90;51.60
480;DHT22;226;48.606;9.096;2023-06-01T05:26:22;13.00;51.70
480;DHT22;226;48.606;9.096;2023-06-01T05:28:50;13.50;56.50
480;DHT22;226;48.606;9.096;2023-06-01T05:31:18;13.10;47.40
480;DHT22;226;48.606;9.096;2023-06-01T05:33:47;14.70;48.00
480;DHT22;226;48.606;9.096;2023-06-01T05:36:15;13.40;47.00
480;DHT22;226;48.606;9.096;2023-06-01T05:38:44;13.20;46.30
480;DHT22;226;48.606;9.096;2023-06-01T05:41:12;13.50;46.70
480;DHT22;226;48.606;9.096;2023-06-01T05:43:41;13.60;46.90
480;DHT22;226;48.606;9.096;2023-06-01T05:46:09;13.70;50.40
480;DHT22;226;48.606;9.096;2023-06-01T05:48:37;13.60;53.00
480;DHT22;226;48.606;9.096;2023-06-01T05:51:07;14.00;54.60
480;DHT22;226;48.606;9.096;2023-06-01T05:53:35;14.10;52.70
480;DHT22;226;48.606;9.096;2023-06-01T05:56:03;14.20;52.60
480;DHT22;226;48.606;9.096;2023-06-01T05:58:31;14.40;52.00
480;DHT22;226;48.606;9.096;2023-06-01T06:01:01;14.40;52.30
480;DHT22;226;48.606;9.096;2023-06-01T06:03:30;14.50;52.10
480;DHT22;226;48.606;9.096;2023-06-01T06:06:00;14.70;57.60
480;DHT22;226;48.606;9.096;2023-06-01T06:08:28;14.90;58.80
480;DHT22;226;48.606;9.096;2023-06-01T06:15:54;15.00;55.20
480;DHT22;226;48.606;9.096;2023-06-01T06:18:24;15.10;50.90
480;DHT22;226;48.606;9.096;2023-06-01T06:20:52;15.50;50.00
480;DHT22;226;48.606;9.096;2023-06-01T06:23:20;15.50;47.80
480;DHT22;226;48.606;9.096;2023-06-01T06:25:49;15.70;48.70
480;DHT22;226;48.606;9.096;2023-06-01T06:28:17;16.20;49.30
480;DHT22;226;48.606;9.096;2023-06-01T06:30:45;16.10;48.30
480;DHT22;226;48.606;9.096;2023-06-01T06:33:13;15.90;44.00
480;DHT22;226;48.606;9.096;2023-06-01T06:35:43;16.40;42.50
480;DHT22;226;48.606;9.096;2023-06-01T06:38:12;16.30;45.60
480;DHT22;226;48.606;9.096;2023-06-01T06:40:40;16.40;39.10
480;DHT22;226;48.606;9.096;2023-06-01T06:43:09;17.90;37.20
480;DHT22;226;48.606;9.096;2023-06-01T06:45:37;16.60;35.60
480;DHT22;226;48.606;9.096;2023-06-01T06:48:05;16.80;35.20
480;DHT22;226;48.606;9.096;2023-06-01T06:50:33;16.70;35.10
480;DHT22;226;48.606;9.096;2023-06-01T06:53:05;16.90;35.50
480;DHT22;226;48.606;9.096;2023-06-01T06:55:33;17.00;38.00
480;DHT22;226;48.606;9.096;2023-06-01T06:58:01;17.10;39.50
480;DHT22;226;48.606;9.096;2023-06-01T07:00:29;17.20;40.10
480;DHT22;226;48.606;9.096;2023-06-01T07:02:57;17.40;38.80
480;DHT22;226;48.606;9.096;2023-06-01T07:05:27;17.40;37.90
480;DHT22;226;48.606;9.096;2023-06-01T07:07:55;17.40;37.90
480;DHT22;226;48.606;9.096;2023-06-01T07:10:25;17.50;39.60
480;DHT22;226;48.606;9.096;2023-06-01T07:15:31;17.60;33.20
480;DHT22;226;48.606;9.096;2023-06-01T07:17:59;18.00;33.10
480;DHT22;226;48.606;9.096;2023-06-01T07:20:27;17.80;33.00
480;DHT22;226;48.606;9.096;2023-06-01T07:22:55;18.00;34.50
480;DHT22;226;48.606;9.096;2023-06-01T07:25:24;17.90;35.60
480;DHT22;226;48.606;9.096;2023-06-01T07:27:53;18.10;40.50
480;DHT22;226;48.606;9.096;2023-06-01T07:30:23;18.60;35.90
480;DHT22;226;48.606;9.096;2023-06-01T07:35:20;18.20;30.00
480;DHT22;226;48.606;9.096;2023-06-01T07:37:48;18.40;34.50
480;DHT22;226;48.606;9.096;2023-06-01T07:40:16;17.60;39.30
480;DHT22;226;48.606;9.096;2023-06-01T07:45:14;18.20;26.90
480;DHT22;226;48.606;9.096;2023-06-01T07:47:44;18.50;30.50
480;DHT22;226;48.606;9.096;2023-06-01T07:50:13;18.50;30.60
480;DHT22;226;48.606;9.096;2023-06-01T07:52:41;18.50;49.20
480;DHT22;226;48.606;9.096;2023-06-01T07:55:09;18.70;32.20
480;DHT22;226;48.606;9.096;2023-06-01T07:57:37;18.80;32.00
480;DHT22;226;48.606;9.096;2023-06-01T08:00:09;19.00;33.40
480;DHT22;226;48.606;9.096;2023-06-01T08:02:39;19.30;49.80
480;DHT22;226;48.606;9.096;2023-06-01T08:05:09;19.40;33.50
480;DHT22;226;48.606;9.096;2023-06-01T08:07:38;19.40;31.60
480;DHT22;226;48.606;9.096;2023-06-01T08:10:07;19.50;31.80
480;DHT22;226;48.606;9.096;2023-06-01T08:12:35;19.30;32.10
480;DHT22;226;48.606;9.096;2023-06-01T08:15:04;19.40;30.60
480;DHT22;226;48.606;9.096;2023-06-01T08:17:34;19.60;32.60
480;DHT22;226;48.606;9.096;2023-06-01T08:20:02;19.80;42.20
480;DHT22;226;48.606;9.096;2023-06-01T08:22:35;19.90;35.40
480;DHT22;226;48.606;9.096;2023-06-01T08:25:04;19.80;28.80
480;DHT22;226;48.606;9.096;2023-06-01T08:27:32;20.00;28.30
480;DHT22;226;48.606;9.096;2023-06-01T08:30:00;20.20;29.50
480;DHT22;226;48.606;9.096;2023-06-01T08:32:28;20.10;28.50
480;DHT22;226;48.606;9.096;2023-06-01T08:34:58;20.30;27.70
480;DHT22;226;48.606;9.096;2023-06-01T08:37:27;20.50;29.30
480;DHT22;226;48.606;9.096;2023-06-01T08:42:30;20.80;40.80
480;DHT22;226;48.606;9.096;2023-06-01T08:45:04;19.90;29.40
480;DHT22;226;48.606;9.096;2023-06-01T08:47:35;21.10;31.40
480;DHT22;226;48.606;9.096;2023-06-01T08:50:09;21.00;26.50
480;DHT22;226;48.606;9.096;2023-06-01T08:52:38;21.10;27.10
480;DHT22;226;48.606;9.096;2023-06-01T08:55:09;21.30;28.70
480;DHT22;226;48.606;9.096;2023-06-01T08:57:40;21.70;26.80
480;DHT22;226;48.606;9.096;2023-06-01T09:00:11;21.40;25.40
480;DHT22;226;48.606;9.096;2023-06-01T09:02:42;21.30;41.70
480;DHT22;226;48.606;9.096;2023-06-01T09:05:12;21.40;25.80
480;DHT22;226;48.606;9.096;2023-06-01T09:07:41;21.40;26.50
480;DHT22;226;48.606;9.096;2023-06-01T09:10:09;21.60;27.10
480;DHT22;226;48.606;9.096;2023-06-01T09:12:38;21.60;44.90
480;DHT22;226;48.606;9.096;2023-06-01T09:15:12;21.70;23.40
480;DHT22;226;48.606;9.096;2023-06-01T09:17:44;21.80;24.00
480;DHT22;226;48.606;9.096;2023-06-01T09:20:22;21.70;24.20
480;DHT22;226;48.606;9.096;2023-06-01T09:22:51;21.70;24.20
480;DHT22;226;48.606;9.096;2023-06-01T09:25:24;22.00;29.30
480;DHT22;226;48.606;9.096;2023-06-01T09:27:54;22.00;29.60
480;DHT22;226;48.606;9.096;2023-06-01T09:30:24;22.00;29.40
480;DHT22;226;48.606;9.096;2023-06-01T09:33:07;21.80;42.10
480;DHT22;226;48.606;9.096;2023-06-01T09:35:41;22.00;24.60
480;DHT22;226;48.606;9.096;2023-06-01T09:38:10;22.10;23.20
480;DHT22;226;48.606;9.096;2023-06-01T09:40:39;22.20;22.90
480;DHT22;226;48.606;9.096;2023-06-01T09:43:19;22.20;24.10
480;DHT22;226;48.606;9.096;2023-06-01T09:46:05;22.20;23.90
480;DHT22;226;48.606;9.096;2023-06-01T09:48:34;22.20;21.00
480;DHT22;226;48.606;9.096;2023-06-01T09:51:05;22.40;24.90
480;DHT22;226;48.606;9.096;2023-06-01T09:53:48;22.50;23.20
480;DHT22;226;48.606;9.096;2023-06-01T09:56:16;22.30;24.60
480;DHT22;226;48.606;9.096;2023-06-01T09:58:45;22.30;23.30
480;DHT22;226;48.606;9.096;2023-06-01T10:01:14;22.20;23.90
480;DHT22;226;48.606;9.096;2023-06-01T10:03:43;22.50;23.30
480;DHT22;226;48.606;9.096;2023-06-01T10:06:14;22.70;14.20
480;DHT22;226;48.606;9.096;2023-06-01T10:08:43;22.90;14.20
480;DHT22;226;48.606;9.096;2023-06-01T10:11:12;23.00;12.50
480;DHT22;226;48.606;9.096;2023-06-01T10:13:40;23.10;13.40
480;DHT22;226;48.606;9.096;2023-06-01T10:16:09;23.20;13.40
480;DHT22;226;48.606;9.096;2023-06-01T10:18:40;23.30;12.00
480;DHT22;226;48.606;9.096;2023-06-01T10:21:09;23.20;11.70
480;DHT22;226;48.606;9.096;2023-06-01T10:23:40;23.30;9.90
480;DHT22;226;48.606;9.096;2023-06-01T10:26:12;23.30;8.90
480;DHT22;226;48.606;9.096;2023-06-01T10:28:44;23.60;10.60
480;DHT22;226;48.606;9.096;2023-06-01T10:31:46;24.50;11.50
480;DHT22;226;48.606;9.096;2023-06-01T10:34:14;23.90;9.90
480;DHT22;226;48.606;9.096;2023-06-01T10:40:11;23.70;7.00
480;DHT22;226;48.606;9.096;2023-06-01T10:42:47;23.90;22.70
480;DHT22;226;48.606;9.096;2023-06-01T10:45:36;24.00;5.50
480;DHT22;226;48.606;9.096;2023-06-01T10:48:06;23.30;6.20
480;DHT22;226;48.606;9.096;2023-06-01T10:50:34;24.40;6.80
480;DHT22;226;48.606;9.096;2023-06-01T10:53:26;24.50;16.30
480;DHT22;226;48.606;9.096;2023-06-01T10:56:20;24.50;15.00
480;DHT22;226;48.606;9.096;2023-06-01T10:59:10;24.60;14.20
480;DHT22;226;48.606;9.096;2023-06-01T11:01:46;24.70;20.20
480;DHT22;226;48.606;9.096;2023-06-01T11:04:15;24.60;19.40
480;DHT22;226;48.606;9.096;2023-06-01T11:06:43;24.20;18.60
480;DHT22;226;48.606;9.096;2023-06-01T11:09:12;24.30;17.60
480;DHT22;226;48.606;9.096;2023-06-01T11:12:00;24.40;15.20
480;DHT22;226;48.606;9.096;2023-06-01T11:14:29;24.60;16.80
480;DHT22;226;48.606;9.096;2023-06-01T11:17:26;24.70;16.30
480;DHT22;226;48.606;9.096;2023-06-01T11:19:57;24.70;10.70
480;DHT22;226;48.606;9.096;2023-06-01T11:22:34;24.60;15.40
480;DHT22;226;48.606;9.096;2023-06-01T11:25:05;25.20;15.50
480;DHT22;226;48.606;9.096;2023-06-01T11:27:36;25.00;14.70
480;DHT22;226;48.606;9.096;2023-06-01T11:30:05;25.00;16.40
480;DHT22;226;48.606;9.096;2023-06-01T11:32:37;25.10;13.00
480;DHT22;226;48.606;9.096;2023-06-01T11:35:16;24.80;13.60
480;DHT22;226;48.606;9.096;2023-06-01T11:37:45;24.90;13.50
480;DHT22;226;48.606;9.096;2023-06-01T11:40:16;24.70;14.60
480;DHT22;226;48.606;9.096;2023-06-01T11:42:46;24.70;32.30
480;DHT22;226;48.606;9.096;2023-06-01T11:45:17;24.90;15.30
480;DHT22;226;48.606;9.096;2023-06-01T11:47:45;24.70;15.30
480;DHT22;226;48.606;9.096;2023-06-01T11:50:21;25.00;27.20
480;DHT22;226;48.606;9.096;2023-06-01T11:52:54;25.40;30.50
480;DHT22;226;48.606;9.096;2023-06-01T11:55:24;25.50;13.40
480;DHT22;226;48.606;9.096;2023-06-01T11:57:53;25.80;13.70
480;DHT22;226;48.606;9.096;2023-06-01T12:00:22;25.20;3.50
480;DHT22;226;48.606;9.096;2023-06-01T12:03:05;25.70;19.90
480;DHT22;226;48.606;9.096;2023-06-01T12:05:38;25.80;2.90
480;DHT22;226;48.606;9.096;2023-06-01T12:08:07;25.90;2.30
480;DHT22;226;48.606;9.096;2023-06-01T12:10:36;25.90;2.70
480;DHT22;226;48.606;9.096;2023-06-01T12:13:05;26.00;3.00
480;DHT22;226;48.606;9.096;2023-06-01T12:15:34;26.30;19.30
480;DHT22;226;48.606;9.096;2023-06-01T12:18:02;26.20;1.00
480;DHT22;226;48.606;9.096;2023-06-01T12:20:31;25.70;18.90
480;DHT22;226;48.606;9.096;2023-06-01T12:23:01;25.80;1.00
480;DHT22;226;48.606;9.096;2023-06-01T12:25:30;24.30;1.00
480;DHT22;226;48.606;9.096;2023-06-01T12:28:00;26.00;1.00
480;DHT22;226;48.606;9.096;2023-06-01T12:30:31;25.70;1.00
480;DHT22;226;48.606;9.096;2023-06-01T12:32:59;25.50;1.00
480;DHT22;226;48.606;9.096;2023-06-01T12:35:28;25.40;1.60
480;DHT22;226;48.606;9.096;2023-06-01T12:38:05;25.40;1.80
480;DHT22;226;48.606;9.096;2023-06-01T12:40:34;25.60;1.70
480;DHT22;226;48.606;9.096;2023-06-01T12:43:02;25.80;1.00
480;DHT22;226;48.606;9.096;2023-06-01T12:45:38;25.70;1.00
480;DHT22;226;48.606;9.096;2023-06-01T12:48:06;25.70;1.00
480;DHT22;226;48.606;9.096;2023-06-01T12:50:43;26.10;1.00
480;DHT22;226;48.606;9.096;2023-06-01T12:53:12;26.30;16.70
480;DHT22;226;48.606;9.096;2023-06-01T12:55:41;26.30;1.00
480;DHT22;226;48.606;9.096;2023-06-01T12:58:09;26.50;1.00
480;DHT22;226;48.606;9.096;2023-06-01T13:00:38;26.70;1.00
480;DHT22;226;48.606;9.096;2023-06-01T13:03:16;26.80;1.00
480;DHT22;226;48.606;9.096;2023-06-01T13:05:44;27.10;5.50
480;DHT22;226;48.606;9.096;2023-06-01T13:08:13;27.40;5.00
480;DHT22;226;48.606;9.096;2023-06-01T13:10:41;27.70;1.40
480;DHT22;226;48.606;9.096;2023-06-01T13:13:09;28.00;1.00
480;DHT22;226;48.606;9.096;2023-06-01T13:15:41;27.90;17.40
480;DHT22;226;48.606;9.096;2023-06-01T13:18:09;28.20;1.00
480;DHT22;226;48.606;9.096;2023-06-01T13:20:37;27.90;1.00
480;DHT22;226;48.606;9.096;2023-06-01T13:23:07;27.80;1.00
480;DHT22;226;48.606;9.096;2023-06-01T13:25:38;27.60;1.00
480;DHT22;226;48.606;9.096;2023-06-01T13:28:06;27.60;1.00
480;DHT22;226;48.606;9.096;2023-06-01T13:30:35;27.70;1.00
480;DHT22;226;48.606;9.096;2023-06-01T13:33:05;28.10;1.00
480;DHT22;226;48.606;9.096;2023-06-01T13:43:01;31.70;1.00
480;DHT22;226;48.606;9.096;2023-06-01T13:45:29;32.10;1.00
480;DHT22;226;48.606;9.096;2023-06-01T13:47:58;32.20;1.00
480;DHT22;226;48.606;9.096;2023-06-01T13:50:27;32.30;1.00
480;DHT22;226;48.606;9.096;2023-06-01T13:52:56;33.30;1.00
480;DHT22;226;48.606;9.096;2023-06-01T13:55:24;33.10;1.00
480;DHT22;226;48.606;9.096;2023-06-01T13:57:54;33.70;1.00
480;DHT22;226;48.606;9.096;2023-06-01T14:00:22;33.50;1.00
480;DHT22;226;48.606;9.096;2023-06-01T14:02:50;34.10;1.00
480;DHT22;226;48.606;9.096;2023-06-01T14:05:19;33.90;1.00
480;DHT22;226;48.606;9.096;2023-06-01T14:08:07;34.00;1.00
480;DHT22;226;48.606;9.096;2023-06-01T14:10:35;34.00;1.00
480;DHT22;226;48.606;9.096;2023-06-01T14:13:03;34.00;1.00
480;DHT22;226;48.606;9.096;2023-06-01T14:15:31;34.00;1.00
480;DHT22;226;48.606;9.096;2023-06-01T14:17:59;34.10;1.00
480;DHT22;226;48.606;9.096;2023-06-01T14:20:28;34.20;1.00
480;DHT22;226;48.606;9.096;2023-06-01T14:22:56;34.20;1.00
480;DHT22;226;48.606;9.096;2023-06-01T14:25:25;34.20;1.00
480;DHT22;226;48.606;9.096;2023-06-01T14:27:53;34.00;1.00
480;DHT22;226;48.606;9.096;2023-06-01T14:30:22;33.60;1.00
480;DHT22;226;48.606;9.096;2023-06-01T14:32:50;33.40;1.00
480;DHT22;226;48.606;9.096;2023-06-01T14:35:19;33.30;1.00
480;DHT22;226;48.606;9.096;2023-06-01T14:37:47;33.60;1.00
480;DHT22;226;48.606;9.096;2023-06-01T14:40:16;34.10;1.00
480;DHT22;226;48.606;9.096;2023-06-01T14:42:46;33.60;1.00
480;DHT22;226;48.606;9.096;2023-06-01T14:45:14;33.80;1.00
480;DHT22;226;48.606;9.096;2023-06-01T14:47:42;33.90;1.00
480;DHT22;226;48.606;9.096;2023-06-01T14:50:11;33.90;1.00
480;DHT22;226;48.606;9.096;2023-06-01T14:52:39;33.90;1.00
480;DHT22;226;48.606;9.096;2023-06-01T14:55:08;33.90;1.00
480;DHT22;226;48.606;9.096;2023-06-01T14:57:40;33.00;1.00
480;DHT22;226;48.606;9.096;2023-06-01T15:00:11;33.30;1.00
480;DHT22;226;48.606;9.096;2023-06-01T15:02:39;34.10;1.00
480;DHT22;226;48.606;9.096;2023-06-01T15:05:08;33.90;1.00
480;DHT22;226;48.606;9.096;2023-06-01T15:07:36;33.50;1.00
480;DHT22;226;48.606;9.096;2023-06-01T15:10:05;33.00;1.00
480;DHT22;226;48.606;9.096;2023-06-01T15:12:34;32.50;1.00
480;DHT22;226;48.606;9.096;2023-06-01T15:15:02;32.40;1.00
480;DHT22;226;48.606;9.096;2023-06-01T15:17:31;32.40;1.00
480;DHT22;226;48.606;9.096;2023-06-01T15:20:00;32.50;1.00
480;DHT22;226;48.606;9.096;2023-06-01T15:22:28;32.80;1.00
480;DHT22;226;48.606;9.096;2023-06-01T15:24:56;33.30;1.00
480;DHT22;226;48.606;9.096;2023-06-01T15:27:24;33.30;1.00
480;DHT22;226;48.606;9.096;2023-06-01T15:29:53;33.60;1.00
480;DHT22;226;48.606;9.096;2023-06-01T15:32:21;34.10;1.00
480;DHT22;226;48.606;9.096;2023-06-01T15:34:50;34.80;1.00
480;DHT22;226;48.606;9.096;2023-06-01T15:37:18;35.20;1.00
480;DHT22;226;48.606;9.096;2023-06-01T15:39:47;35.70;1.00
480;DHT22;226;48.606;9.096;2023-06-01T15:42:16;35.50;1.00
480;DHT22;226;48.606;9.096;2023-06-01T15:44:44;36.40;1.00
480;DHT22;226;48.606;9.096;2023-06-01T15:47:12;36.00;1.00
480;DHT22;226;48.606;9.096;2023-06-01T15:49:41;36.20;1.00
480;DHT22;226;48.606;9.096;2023-06-01T15:52:10;36.50;1.00
480;DHT22;226;48.606;9.096;2023-06-01T15:54:38;36.20;1.00
480;DHT22;226;48.606;9.096;2023-06-01T15:57:07;36.20;1.00
480;DHT22;226;48.606;9.096;2023-06-01T15:59:35;36.00;1.00
480;DHT22;226;48.606;9.096;2023-06-01T16:02:03;36.10;1.00
480;DHT22;226;48.606;9.096;2023-06-01T16:04:31;36.60;1.00
480;DHT22;226;48.606;9.096;2023-06-01T16:06:59;36.80;1.00
480;DHT22;226;48.606;9.096;2023-06-01T16:09:29;36.90;1.00
480;DHT22;226;48.606;9.096;2023-06-01T16:11:57;37.20;1.00
480;DHT22;226;48.606;9.096;2023-06-01T16:14:25;37.20;1.00
480;DHT22;226;48.606;9.096;2023-06-01T16:19:22;38.00;1.00
480;DHT22;226;48.606;9.096;2023-06-01T16:21:50;38.70;1.00
480;DHT22;226;48.606;9.096;2023-06-01T16:24:18;38.30;1.00
480;DHT22;226;48.606;9.096;2023-06-01T16:26:48;37.90;1.00
480;DHT22;226;48.606;9.096;2023-06-01T16:29:16;37.40;1.00
480;DHT22;226;48.606;9.096;2023-06-01T16:31:44;37.00;1.00
480;DHT22;226;48.606;9.096;2023-06-01T16:34:12;36.90;1.00
480;DHT22;226;48.606;9.096;2023-06-01T16:36:40;37.20;1.00
480;DHT22;226;48.606;9.096;2023-06-01T16:39:08;36.80;1.00
480;DHT22;226;48.606;9.096;2023-06-01T16:41:37;36.80;1.00
480;DHT22;226;48.606;9.096;2023-06-01T16:44:06;36.60;1.00
480;DHT22;226;48.606;9.096;2023-06-01T16:46:34;36.60;1.00
480;DHT22;226;48.606;9.096;2023-06-01T16:49:04;35.50;1.00
480;DHT22;226;48.606;9.096;2023-06-01T16:51:33;36.40;1.00
480;DHT22;226;48.606;9.096;2023-06-01T16:54:02;35.80;1.00
480;DHT22;226;48.606;9.096;2023-06-01T16:56:31;36.00;1.00
480;DHT22;226;48.606;9.096;2023-06-01T16:58:59;35.00;1.00
480;DHT22;226;48.606;9.096;2023-06-01T17:01:29;35.00;1.00
480;DHT22;226;48.606;9.096;2023-06-01T17:04:00;34.00;1.00
480;DHT22;226;48.606;9.096;2023-06-01T17:06:28;33.60;1.00
480;DHT22;226;48.606;9.096;2023-06-01T17:08:58;33.30;1.00
480;DHT22;226;48.606;9.096;2023-06-01T17:11:27;33.30;1.00
480;DHT22;226;48.606;9.096;2023-06-01T17:13:55;32.80;1.00
480;DHT22;226;48.606;9.096;2023-06-01T17:16:23;32.60;1.00
480;DHT22;226;48.606;9.096;2023-06-01T17:18:53;32.80;1.00
480;DHT22;226;48.606;9.096;2023-06-01T17:21:21;33.40;1.00
480;DHT22;226;48.606;9.096;2023-06-01T17:23:49;33.80;1.00
480;DHT22;226;48.606;9.096;2023-06-01T17:26:17;35.40;1.00